sensor_id;sensor_type;location;lat;lon;timestamp;P1;durP1;ratioP1;P2;durP2;ratioP2
17832;SDS011;9041;49.718;21.798;2023-03-13T00:01:40;13.30;;;6.13;;
17832;SDS011;9041;49.718;21.798;2023-03-13T00:04:08;15.40;;;6.17;;
17832;SDS011;9041;49.718;21.798;2023-03-13T00:06:36;11.73;;;6.03;;
17832;SDS011;9041;49.718;21.798;2023-03-13T00:09:05;13.70;;;5.53;;
17832;SDS011;9041;49.718;21.798;2023-03-13T00:11:33;12.93;;;6.20;;
17832;SDS011;9041;49.718;21.798;2023-03-13T00:14:01;14.67;;;6.30;;
17832;SDS011;9041;49.718;21.798;2023-03-13T00:16:29;16.10;;;6.60;;
17832;SDS011;9041;49.718;21.798;2023-03-13T00:18:56;14.83;;;5.97;;
17832;SDS011;9041;49.718;21.798;2023-03-13T00:21:24;12.27;;;6.10;;
17832;SDS011;9041;49.718;21.798;2023-03-13T00:23:53;12.97;;;5.90;;
17832;SDS011;9041;49.718;21.798;2023-03-13T00:26:22;14.07;;;5.47;;
17832;SDS011;9041;49.718;21.798;2023-03-13T00:28:50;12.57;;;5.67;;
17832;SDS011;9041;49.718;21.798;2023-03-13T00:31:18;10.90;;;5.57;;
17832;SDS011;9041;49.718;21.798;2023-03-13T00:33:46;12.80;;;5.53;;
17832;SDS011;9041;49.718;21.798;2023-03-13T00:36:14;10.07;;;5.07;;
17832;SDS011;9041;49.718;21.798;2023-03-13T00:38:44;12.83;;;6.27;;
17832;SDS011;9041;49.718;21.798;2023-03-13T00:41:12;13.00;;;6.00;;
17832;SDS011;9041;49.718;21.798;2023-03-13T00:43:43;12.13;;;5.70;;
17832;SDS011;9041;49.718;21.798;2023-03-13T00:46:10;11.57;;;5.07;;
17832;SDS011;9041;49.718;21.798;2023-03-13T00:48:38;10.90;;;4.90;;
17832;SDS011;9041;49.718;21.798;2023-03-13T00:51:05;12.30;;;5.23;;
17832;SDS011;9041;49.718;21.798;2023-03-13T00:53:33;12.43;;;5.17;;
17832;SDS011;9041;49.718;21.798;2023-03-13T00:56:00;10.93;;;5.10;;
17832;SDS011;9041;49.718;21.798;2023-03-13T00:58:29;11.23;;;5.17;;
17832;SDS011;9041;49.718;21.798;2023-03-13T01:01:04;14.40;;;5.40;;
17832;SDS011;9041;49.718;21.798;2023-03-13T01:03:32;7.83;;;4.50;;
17832;SDS011;9041;49.718;21.798;2023-03-13T01:06:00;11.27;;;4.63;;
17832;SDS011;9041;49.718;21.798;2023-03-13T01:08:28;10.90;;;4.67;;
17832;SDS011;9041;49.718;21.798;2023-03-13T01:10:56;9.13;;;4.57;;
17832;SDS011;9041;49.718;21.798;2023-03-13T01:13:24;7.20;;;3.87;;
17832;SDS011;9041;49.718;21.798;2023-03-13T01:15:52;8.57;;;4.13;;
17832;SDS011;9041;49.718;21.798;2023-03-13T01:18:20;9.30;;;4.67;;
17832;SDS011;9041;49.718;21.798;2023-03-13T01:20:47;9.20;;;3.90;;
17832;SDS011;9041;49.718;21.798;2023-03-13T01:23:14;7.03;;;3.83;;
17832;SDS011;9041;49.718;21.798;2023-03-13T01:25:41;8.67;;;4.17;;
17832;SDS011;9041;49.718;21.798;2023-03-13T01:28:08;8.40;;;3.70;;
17832;SDS011;9041;49.718;21.798;2023-03-13T01:30:34;6.93;;;3.77;;
17832;SDS011;9041;49.718;21.798;2023-03-13T01:33:01;6.93;;;3.40;;
17832;SDS011;9041;49.718;21.798;2023-03-13T01:35:29;5.90;;;3.97;;
17832;SDS011;9041;49.718;21.798;2023-03-13T01:37:56;7.83;;;3.60;;
17832;SDS011;9041;49.718;21.798;2023-03-13T01:40:23;8.63;;;4.20;;
17832;SDS011;9041;49.718;21.798;2023-03-13T01:42:51;10.23;;;4.10;;
17832;SDS011;9041;49.718;21.798;2023-03-13T01:48:23;10.77;;;3.90;;
17832;SDS011;9041;49.718;21.798;2023-03-13T01:50:54;7.33;;;3.30;;
17832;SDS011;9041;49.718;21.798;2023-03-13T01:53:22;8.33;;;3.80;;
17832;SDS011;9041;49.718;21.798;2023-03-13T01:55:50;6.23;;;3.37;;
17832;SDS011;9041;49.718;21.798;2023-03-13T01:58:17;6.93;;;3.47;;
17832;SDS011;9041;49.718;21.798;2023-03-13T02:00:44;7.90;;;3.63;;
17832;SDS011;9041;49.718;21.798;2023-03-13T02:03:12;8.67;;;3.80;;
17832;SDS011;9041;49.718;21.798;2023-03-13T02:05:40;6.30;;;3.80;;
17832;SDS011;9041;49.718;21.798;2023-03-13T02:08:10;8.10;;;4.10;;
17832;SDS011;9041;49.718;21.798;2023-03-13T02:10:41;7.40;;;3.80;;
17832;SDS011;9041;49.718;21.798;2023-03-13T02:13:11;10.80;;;3.77;;
17832;SDS011;9041;49.718;21.798;2023-03-13T02:15:40;6.77;;;3.63;;
17832;SDS011;9041;49.718;21.798;2023-03-13T02:18:07;5.17;;;3.03;;
17832;SDS011;9041;49.718;21.798;2023-03-13T02:20:34;7.23;;;3.67;;
17832;SDS011;9041;49.718;21.798;2023-03-13T02:23:01;5.10;;;3.20;;
17832;SDS011;9041;49.718;21.798;2023-03-13T02:25:35;7.87;;;3.17;;
17832;SDS011;9041;49.718;21.798;2023-03-13T02:28:06;9.37;;;3.53;;
17832;SDS011;9041;49.718;21.798;2023-03-13T02:30:35;7.43;;;3.70;;
17832;SDS011;9041;49.718;21.798;2023-03-13T02:33:02;7.17;;;3.60;;
17832;SDS011;9041;49.718;21.798;2023-03-13T02:35:29;5.57;;;3.40;;
17832;SDS011;9041;49.718;21.798;2023-03-13T02:37:58;7.10;;;3.87;;
17832;SDS011;9041;49.718;21.798;2023-03-13T02:40:27;6.63;;;3.47;;
17832;SDS011;9041;49.718;21.798;2023-03-13T02:42:59;7.23;;;3.50;;
17832;SDS011;9041;49.718;21.798;2023-03-13T02:45:28;8.13;;;3.63;;
17832;SDS011;9041;49.718;21.798;2023-03-13T02:47:55;6.37;;;3.33;;
17832;SDS011;9041;49.718;21.798;2023-03-13T02:50:22;8.40;;;4.00;;
17832;SDS011;9041;49.718;21.798;2023-03-13T02:52:50;8.13;;;3.50;;
17832;SDS011;9041;49.718;21.798;2023-03-13T02:55:27;10.20;;;3.90;;
17832;SDS011;9041;49.718;21.798;2023-03-13T02:57:55;8.37;;;3.43;;
17832;SDS011;9041;49.718;21.798;2023-03-13T03:00:25;7.63;;;3.30;;
17832;SDS011;9041;49.718;21.798;2023-03-13T03:02:52;9.37;;;4.17;;
17832;SDS011;9041;49.718;21.798;2023-03-13T03:05:20;6.63;;;3.50;;
17832;SDS011;9041;49.718;21.798;2023-03-13T03:07:55;7.03;;;3.93;;
17832;SDS011;9041;49.718;21.798;2023-03-13T03:10:22;7.10;;;3.73;;
17832;SDS011;9041;49.718;21.798;2023-03-13T03:12:50;7.03;;;4.00;;
17832;SDS011;9041;49.718;21.798;2023-03-13T03:15:17;7.23;;;3.67;;
17832;SDS011;9041;49.718;21.798;2023-03-13T03:17:45;6.63;;;3.70;;
17832;SDS011;9041;49.718;21.798;2023-03-13T03:20:12;7.30;;;3.83;;
17832;SDS011;9041;49.718;21.798;2023-03-13T03:22:39;8.53;;;3.80;;
17832;SDS011;9041;49.718;21.798;2023-03-13T03:25:06;8.00;;;4.00;;
17832;SDS011;9041;49.718;21.798;2023-03-13T03:27:34;8.27;;;3.73;;
17832;SDS011;9041;49.718;21.798;2023-03-13T03:30:01;10.37;;;3.67;;
17832;SDS011;9041;49.718;21.798;2023-03-13T03:32:28;7.33;;;3.17;;
17832;SDS011;9041;49.718;21.798;2023-03-13T03:34:56;8.43;;;3.50;;
17832;SDS011;9041;49.718;21.798;2023-03-13T03:37:23;9.80;;;3.80;;
17832;SDS011;9041;49.718;21.798;2023-03-13T03:39:50;8.00;;;3.87;;
17832;SDS011;9041;49.718;21.798;2023-03-13T03:42:17;9.63;;;3.70;;
17832;SDS011;9041;49.718;21.798;2023-03-13T03:44:44;8.93;;;3.50;;
17832;SDS011;9041;49.718;21.798;2023-03-13T03:47:11;7.10;;;3.27;;
17832;SDS011;9041;49.718;21.798;2023-03-13T03:49:38;7.47;;;3.37;;
17832;SDS011;9041;49.718;21.798;2023-03-13T03:52:07;6.13;;;3.63;;
17832;SDS011;9041;49.718;21.798;2023-03-13T03:54:33;6.87;;;3.70;;
17832;SDS011;9041;49.718;21.798;2023-03-13T03:57:00;6.67;;;3.63;;
17832;SDS011;9041;49.718;21.798;2023-03-13T03:59:27;7.93;;;3.93;;
17832;SDS011;9041;49.718;21.798;2023-03-13T04:01:54;7.47;;;3.80;;
17832;SDS011;9041;49.718;21.798;2023-03-13T04:04:21;12.10;;;4.10;;
17832;SDS011;9041;49.718;21.798;2023-03-13T04:06:48;9.63;;;4.20;;
17832;SDS011;9041;49.718;21.798;2023-03-13T04:09:16;7.40;;;4.20;;
17832;SDS011;9041;49.718;21.798;2023-03-13T04:11:43;9.23;;;4.07;;
17832;SDS011;9041;49.718;21.798;2023-03-13T04:14:10;10.73;;;4.30;;
17832;SDS011;9041;49.718;21.798;2023-03-13T04:16:37;12.57;;;4.80;;
17832;SDS011;9041;49.718;21.798;2023-03-13T04:19:04;10.83;;;4.20;;
17832;SDS011;9041;49.718;21.798;2023-03-13T04:21:31;12.43;;;5.33;;
17832;SDS011;9041;49.718;21.798;2023-03-13T04:23:58;13.63;;;5.53;;
17832;SDS011;9041;49.718;21.798;2023-03-13T04:26:27;10.10;;;4.30;;
17832;SDS011;9041;49.718;21.798;2023-03-13T04:28:53;9.73;;;4.13;;
17832;SDS011;9041;49.718;21.798;2023-03-13T04:31:21;9.60;;;4.60;;
17832;SDS011;9041;49.718;21.798;2023-03-13T04:33:48;12.33;;;4.60;;
17832;SDS011;9041;49.718;21.798;2023-03-13T04:36:15;10.50;;;4.13;;
17832;SDS011;9041;49.718;21.798;2023-03-13T04:38:42;9.70;;;4.20;;
17832;SDS011;9041;49.718;21.798;2023-03-13T04:41:09;11.13;;;4.93;;
17832;SDS011;9041;49.718;21.798;2023-03-13T04:43:37;12.13;;;5.00;;
17832;SDS011;9041;49.718;21.798;2023-03-13T04:46:04;10.17;;;4.30;;
17832;SDS011;9041;49.718;21.798;2023-03-13T04:48:31;11.57;;;5.20;;
17832;SDS011;9041;49.718;21.798;2023-03-13T04:50:58;8.13;;;4.50;;
17832;SDS011;9041;49.718;21.798;2023-03-13T04:53:25;9.77;;;4.70;;
17832;SDS011;9041;49.718;21.798;2023-03-13T04:55:52;7.77;;;4.57;;
17832;SDS011;9041;49.718;21.798;2023-03-13T04:58:18;8.60;;;4.60;;
17832;SDS011;9041;49.718;21.798;2023-03-13T05:00:46;12.10;;;5.10;;
17832;SDS011;9041;49.718;21.798;2023-03-13T05:03:13;9.00;;;4.27;;
17832;SDS011;9041;49.718;21.798;2023-03-13T05:05:41;10.33;;;5.17;;
17832;SDS011;9041;49.718;21.798;2023-03-13T05:08:07;8.07;;;4.53;;
17832;SDS011;9041;49.718;21.798;2023-03-13T05:10:35;7.17;;;4.60;;
17832;SDS011;9041;49.718;21.798;2023-03-13T05:13:02;14.07;;;5.03;;
17832;SDS011;9041;49.718;21.798;2023-03-13T05:15:30;9.80;;;5.43;;
17832;SDS011;9041;49.718;21.798;2023-03-13T05:17:58;11.20;;;5.07;;
17832;SDS011;9041;49.718;21.798;2023-03-13T05:20:25;19.87;;;6.67;;
17832;SDS011;9041;49.718;21.798;2023-03-13T05:22:52;12.53;;;5.47;;
17832;SDS011;9041;49.718;21.798;2023-03-13T05:25:19;11.43;;;4.47;;
17832;SDS011;9041;49.718;21.798;2023-03-13T05:27:46;10.47;;;4.63;;
17832;SDS011;9041;49.718;21.798;2023-03-13T05:30:12;12.27;;;5.47;;
17832;SDS011;9041;49.718;21.798;2023-03-13T05:32:40;26.27;;;9.47;;
17832;SDS011;9041;49.718;21.798;2023-03-13T05:35:08;18.10;;;5.90;;
17832;SDS011;9041;49.718;21.798;2023-03-13T05:37:35;20.20;;;6.57;;
17832;SDS011;9041;49.718;21.798;2023-03-13T05:40:02;10.80;;;5.10;;
17832;SDS011;9041;49.718;21.798;2023-03-13T05:42:30;12.80;;;5.00;;
17832;SDS011;9041;49.718;21.798;2023-03-13T05:44:57;10.70;;;5.30;;
17832;SDS011;9041;49.718;21.798;2023-03-13T05:47:24;10.13;;;4.70;;
17832;SDS011;9041;49.718;21.798;2023-03-13T05:49:51;58.40;;;19.73;;
17832;SDS011;9041;49.718;21.798;2023-03-13T05:52:19;49.23;;;16.63;;
17832;SDS011;9041;49.718;21.798;2023-03-13T05:54:45;18.47;;;7.37;;
17832;SDS011;9041;49.718;21.798;2023-03-13T05:57:13;12.97;;;5.90;;
17832;SDS011;9041;49.718;21.798;2023-03-13T05:59:41;14.90;;;6.53;;
17832;SDS011;9041;49.718;21.798;2023-03-13T06:02:07;13.87;;;5.33;;
17832;SDS011;9041;49.718;21.798;2023-03-13T06:04:34;8.37;;;4.33;;
17832;SDS011;9041;49.718;21.798;2023-03-13T06:07:01;12.37;;;6.40;;
17832;SDS011;9041;49.718;21.798;2023-03-13T06:09:29;10.53;;;5.43;;
17832;SDS011;9041;49.718;21.798;2023-03-13T06:11:56;12.63;;;5.27;;
17832;SDS011;9041;49.718;21.798;2023-03-13T06:14:24;11.43;;;5.50;;
17832;SDS011;9041;49.718;21.798;2023-03-13T06:16:52;10.97;;;5.30;;
17832;SDS011;9041;49.718;21.798;2023-03-13T06:19:19;10.67;;;4.77;;
17832;SDS011;9041;49.718;21.798;2023-03-13T06:21:46;19.10;;;7.40;;
17832;SDS011;9041;49.718;21.798;2023-03-13T06:24:13;12.33;;;5.77;;
17832;SDS011;9041;49.718;21.798;2023-03-13T06:26:41;13.10;;;6.20;;
17832;SDS011;9041;49.718;21.798;2023-03-13T06:29:08;15.50;;;7.50;;
17832;SDS011;9041;49.718;21.798;2023-03-13T06:31:35;9.70;;;5.77;;
17832;SDS011;9041;49.718;21.798;2023-03-13T06:34:02;18.67;;;9.00;;
17832;SDS011;9041;49.718;21.798;2023-03-13T06:36:29;15.87;;;7.00;;
17832;SDS011;9041;49.718;21.798;2023-03-13T06:38:56;20.40;;;9.70;;
17832;SDS011;9041;49.718;21.798;2023-03-13T06:41:23;13.27;;;6.20;;
17832;SDS011;9041;49.718;21.798;2023-03-13T06:43:53;19.23;;;9.33;;
17832;SDS011;9041;49.718;21.798;2023-03-13T06:46:20;15.13;;;7.80;;
17832;SDS011;9041;49.718;21.798;2023-03-13T06:48:47;12.60;;;7.13;;
17832;SDS011;9041;49.718;21.798;2023-03-13T06:51:15;14.40;;;8.03;;
17832;SDS011;9041;49.718;21.798;2023-03-13T06:53:43;11.03;;;5.53;;
17832;SDS011;9041;49.718;21.798;2023-03-13T06:56:10;14.43;;;6.80;;
17832;SDS011;9041;49.718;21.798;2023-03-13T06:58:37;12.40;;;6.73;;
17832;SDS011;9041;49.718;21.798;2023-03-13T07:01:10;13.33;;;7.00;;
17832;SDS011;9041;49.718;21.798;2023-03-13T07:03:38;10.53;;;6.13;;
17832;SDS011;9041;49.718;21.798;2023-03-13T07:06:06;12.27;;;6.70;;
17832;SDS011;9041;49.718;21.798;2023-03-13T07:08:34;10.67;;;5.97;;
17832;SDS011;9041;49.718;21.798;2023-03-13T07:11:02;12.93;;;7.27;;
17832;SDS011;9041;49.718;21.798;2023-03-13T07:13:31;19.90;;;5.90;;
17832;SDS011;9041;49.718;21.798;2023-03-13T07:15:58;19.70;;;8.03;;
17832;SDS011;9041;49.718;21.798;2023-03-13T07:18:27;30.07;;;10.27;;
17832;SDS011;9041;49.718;21.798;2023-03-13T07:20:54;14.17;;;7.40;;
17832;SDS011;9041;49.718;21.798;2023-03-13T07:23:22;22.77;;;9.33;;
17832;SDS011;9041;49.718;21.798;2023-03-13T07:25:53;22.23;;;8.70;;
17832;SDS011;9041;49.718;21.798;2023-03-13T07:28:21;20.23;;;8.40;;
17832;SDS011;9041;49.718;21.798;2023-03-13T07:30:48;19.97;;;8.67;;
17832;SDS011;9041;49.718;21.798;2023-03-13T07:33:15;14.03;;;5.80;;
17832;SDS011;9041;49.718;21.798;2023-03-13T07:35:47;12.53;;;6.40;;
17832;SDS011;9041;49.718;21.798;2023-03-13T07:38:14;15.23;;;6.83;;
17832;SDS011;9041;49.718;21.798;2023-03-13T07:40:46;18.60;;;7.53;;
17832;SDS011;9041;49.718;21.798;2023-03-13T07:43:14;16.93;;;8.57;;
17832;SDS011;9041;49.718;21.798;2023-03-13T07:45:48;18.37;;;9.33;;
17832;SDS011;9041;49.718;21.798;2023-03-13T07:48:17;13.37;;;7.33;;
17832;SDS011;9041;49.718;21.798;2023-03-13T07:50:44;14.37;;;6.67;;
17832;SDS011;9041;49.718;21.798;2023-03-13T07:53:12;14.57;;;7.00;;
17832;SDS011;9041;49.718;21.798;2023-03-13T07:55:50;12.63;;;6.20;;
17832;SDS011;9041;49.718;21.798;2023-03-13T07:58:17;14.30;;;6.40;;
17832;SDS011;9041;49.718;21.798;2023-03-13T08:00:44;14.20;;;6.57;;
17832;SDS011;9041;49.718;21.798;2023-03-13T08:03:11;16.30;;;7.13;;
17832;SDS011;9041;49.718;21.798;2023-03-13T08:05:38;14.87;;;7.23;;
17832;SDS011;9041;49.718;21.798;2023-03-13T08:08:05;17.13;;;8.23;;
17832;SDS011;9041;49.718;21.798;2023-03-13T08:10:33;12.63;;;6.30;;
17832;SDS011;9041;49.718;21.798;2023-03-13T08:13:00;19.83;;;5.93;;
17832;SDS011;9041;49.718;21.798;2023-03-13T08:15:27;12.77;;;5.80;;
17832;SDS011;9041;49.718;21.798;2023-03-13T08:17:54;11.47;;;5.77;;
17832;SDS011;9041;49.718;21.798;2023-03-13T08:20:21;12.03;;;6.17;;
17832;SDS011;9041;49.718;21.798;2023-03-13T08:22:48;15.00;;;6.87;;
17832;SDS011;9041;49.718;21.798;2023-03-13T08:25:15;11.77;;;6.10;;
17832;SDS011;9041;49.718;21.798;2023-03-13T08:27:44;11.93;;;6.17;;
17832;SDS011;9041;49.718;21.798;2023-03-13T08:30:11;11.63;;;5.50;;
17832;SDS011;9041;49.718;21.798;2023-03-13T08:32:38;14.00;;;6.67;;
17832;SDS011;9041;49.718;21.798;2023-03-13T08:35:05;16.03;;;7.77;;
17832;SDS011;9041;49.718;21.798;2023-03-13T08:37:33;13.13;;;6.60;;
17832;SDS011;9041;49.718;21.798;2023-03-13T08:40:00;14.63;;;6.03;;
17832;SDS011;9041;49.718;21.798;2023-03-13T08:42:34;10.67;;;5.73;;
17832;SDS011;9041;49.718;21.798;2023-03-13T08:45:03;12.90;;;6.27;;
17832;SDS011;9041;49.718;21.798;2023-03-13T08:47:30;12.70;;;6.20;;
17832;SDS011;9041;49.718;21.798;2023-03-13T08:49:57;11.40;;;5.33;;
17832;SDS011;9041;49.718;21.798;2023-03-13T08:52:24;14.10;;;6.20;;
17832;SDS011;9041;49.718;21.798;2023-03-13T08:54:51;12.77;;;5.70;;
17832;SDS011;9041;49.718;21.798;2023-03-13T08:57:18;10.57;;;6.07;;
17832;SDS011;9041;49.718;21.798;2023-03-13T08:59:45;10.77;;;4.80;;
17832;SDS011;9041;49.718;21.798;2023-03-13T09:02:15;10.87;;;4.77;;
17832;SDS011;9041;49.718;21.798;2023-03-13T09:04:44;9.30;;;5.30;;
17832;SDS011;9041;49.718;21.798;2023-03-13T09:07:12;10.03;;;5.57;;
17832;SDS011;9041;49.718;21.798;2023-03-13T09:09:39;11.63;;;5.77;;
17832;SDS011;9041;49.718;21.798;2023-03-13T09:12:06;14.40;;;6.03;;
17832;SDS011;9041;49.718;21.798;2023-03-13T09:14:34;17.80;;;6.67;;
17832;SDS011;9041;49.718;21.798;2023-03-13T09:17:01;14.20;;;6.73;;
17832;SDS011;9041;49.718;21.798;2023-03-13T09:19:30;10.67;;;6.03;;
17832;SDS011;9041;49.718;21.798;2023-03-13T09:21:56;12.07;;;6.30;;
17832;SDS011;9041;49.718;21.798;2023-03-13T09:24:23;10.47;;;6.13;;
17832;SDS011;9041;49.718;21.798;2023-03-13T09:26:50;14.40;;;6.87;;
17832;SDS011;9041;49.718;21.798;2023-03-13T09:29:17;10.82;;;5.50;;
17832;SDS011;9041;49.718;21.798;2023-03-13T09:31:44;10.27;;;5.65;;
17832;SDS011;9041;49.718;21.798;2023-03-13T09:34:11;11.30;;;6.43;;
17832;SDS011;9041;49.718;21.798;2023-03-13T09:36:39;12.60;;;6.57;;
17832;SDS011;9041;49.718;21.798;2023-03-13T09:39:06;9.98;;;5.15;;
17832;SDS011;9041;49.718;21.798;2023-03-13T09:41:35;8.98;;;5.72;;
17832;SDS011;9041;49.718;21.798;2023-03-13T09:44:06;12.88;;;6.15;;
17832;SDS011;9041;49.718;21.798;2023-03-13T09:46:41;18.20;;;6.78;;
17832;SDS011;9041;49.718;21.798;2023-03-13T09:49:12;13.27;;;6.95;;
17832;SDS011;9041;49.718;21.798;2023-03-13T09:51:42;12.25;;;5.70;;
17832;SDS011;9041;49.718;21.798;2023-03-13T09:54:16;8.95;;;5.78;;
17832;SDS011;9041;49.718;21.798;2023-03-13T09:56:50;9.82;;;5.72;;
17832;SDS011;9041;49.718;21.798;2023-03-13T09:59:20;9.77;;;5.32;;
17832;SDS011;9041;49.718;21.798;2023-03-13T10:01:51;10.63;;;5.53;;
17832;SDS011;9041;49.718;21.798;2023-03-13T10:04:26;11.48;;;6.05;;
17832;SDS011;9041;49.718;21.798;2023-03-13T10:06:56;18.95;;;9.20;;
17832;SDS011;9041;49.718;21.798;2023-03-13T10:09:24;30.88;;;11.98;;
17832;SDS011;9041;49.718;21.798;2023-03-13T10:11:55;14.93;;;7.13;;
17832;SDS011;9041;49.718;21.798;2023-03-13T10:14:30;13.02;;;6.30;;
17832;SDS011;9041;49.718;21.798;2023-03-13T10:17:21;12.10;;;7.07;;
17832;SDS011;9041;49.718;21.798;2023-03-13T10:19:55;11.18;;;6.40;;
17832;SDS011;9041;49.718;21.798;2023-03-13T10:22:27;11.90;;;6.82;;
17832;SDS011;9041;49.718;21.798;2023-03-13T10:24:56;9.63;;;6.03;;
17832;SDS011;9041;49.718;21.798;2023-03-13T10:27:24;14.50;;;6.35;;
17832;SDS011;9041;49.718;21.798;2023-03-13T10:29:51;16.08;;;7.63;;
17832;SDS011;9041;49.718;21.798;2023-03-13T10:32:18;16.05;;;6.90;;
17832;SDS011;9041;49.718;21.798;2023-03-13T10:34:49;12.23;;;6.35;;
17832;SDS011;9041;49.718;21.798;2023-03-13T10:37:20;10.85;;;6.07;;
17832;SDS011;9041;49.718;21.798;2023-03-13T10:39:49;16.52;;;6.40;;
17832;SDS011;9041;49.718;21.798;2023-03-13T10:42:18;11.90;;;6.10;;
17832;SDS011;9041;49.718;21.798;2023-03-13T10:44:47;9.50;;;5.95;;
17832;SDS011;9041;49.718;21.798;2023-03-13T10:47:15;11.80;;;5.72;;
17832;SDS011;9041;49.718;21.798;2023-03-13T10:49:45;9.80;;;5.95;;
17832;SDS011;9041;49.718;21.798;2023-03-13T10:52:27;17.48;;;4.97;;
17832;SDS011;9041;49.718;21.798;2023-03-13T10:54:59;13.98;;;7.32;;
17832;SDS011;9041;49.718;21.798;2023-03-13T10:57:30;10.82;;;6.20;;
17832;SDS011;9041;49.718;21.798;2023-03-13T10:59:57;11.35;;;5.93;;
17832;SDS011;9041;49.718;21.798;2023-03-13T11:02:26;13.20;;;6.13;;
17832;SDS011;9041;49.718;21.798;2023-03-13T11:05:02;13.80;;;6.43;;
17832;SDS011;9041;49.718;21.798;2023-03-13T11:07:56;13.10;;;5.82;;
17832;SDS011;9041;49.718;21.798;2023-03-13T11:10:24;12.05;;;6.03;;
17832;SDS011;9041;49.718;21.798;2023-03-13T11:12:54;12.95;;;6.40;;
17832;SDS011;9041;49.718;21.798;2023-03-13T11:15:22;14.88;;;6.20;;
17832;SDS011;9041;49.718;21.798;2023-03-13T11:17:51;9.30;;;5.30;;
17832;SDS011;9041;49.718;21.798;2023-03-13T11:20:23;11.07;;;5.93;;
17832;SDS011;9041;49.718;21.798;2023-03-13T11:22:54;9.77;;;5.82;;
17832;SDS011;9041;49.718;21.798;2023-03-13T11:25:28;11.00;;;6.07;;
17832;SDS011;9041;49.718;21.798;2023-03-13T11:28:02;11.35;;;6.07;;
17832;SDS011;9041;49.718;21.798;2023-03-13T11:30:43;15.68;;;6.50;;
17832;SDS011;9041;49.718;21.798;2023-03-13T11:33:17;12.02;;;6.65;;
17832;SDS011;9041;49.718;21.798;2023-03-13T11:35:52;11.52;;;6.43;;
17832;SDS011;9041;49.718;21.798;2023-03-13T11:38:28;14.38;;;6.82;;
17832;SDS011;9041;49.718;21.798;2023-03-13T11:41:01;13.15;;;6.53;;
17832;SDS011;9041;49.718;21.798;2023-03-13T11:43:40;13.63;;;6.55;;
17832;SDS011;9041;49.718;21.798;2023-03-13T11:46:17;14.57;;;6.57;;
17832;SDS011;9041;49.718;21.798;2023-03-13T11:48:53;12.75;;;6.43;;
17832;SDS011;9041;49.718;21.798;2023-03-13T11:51:42;11.52;;;6.03;;
17832;SDS011;9041;49.718;21.798;2023-03-13T11:54:22;9.45;;;5.80;;
17832;SDS011;9041;49.718;21.798;2023-03-13T11:56:56;12.02;;;5.85;;
17832;SDS011;9041;49.718;21.798;2023-03-13T11:59:27;14.80;;;6.25;;
17832;SDS011;9041;49.718;21.798;2023-03-13T12:02:00;15.57;;;6.85;;
17832;SDS011;9041;49.718;21.798;2023-03-13T12:04:33;13.93;;;6.30;;
17832;SDS011;9041;49.718;21.798;2023-03-13T12:07:04;11.50;;;6.43;;
17832;SDS011;9041;49.718;21.798;2023-03-13T12:09:54;13.38;;;7.15;;
17832;SDS011;9041;49.718;21.798;2023-03-13T12:12:26;11.82;;;5.75;;
17832;SDS011;9041;49.718;21.798;2023-03-13T12:14:59;12.13;;;5.75;;
17832;SDS011;9041;49.718;21.798;2023-03-13T12:17:34;11.05;;;5.90;;
17832;SDS011;9041;49.718;21.798;2023-03-13T12:20:03;13.02;;;6.13;;
17832;SDS011;9041;49.718;21.798;2023-03-13T12:22:35;11.27;;;5.82;;
17832;SDS011;9041;49.718;21.798;2023-03-13T12:25:08;11.10;;;5.88;;
17832;SDS011;9041;49.718;21.798;2023-03-13T12:27:39;12.52;;;6.03;;
17832;SDS011;9041;49.718;21.798;2023-03-13T12:30:13;14.07;;;5.95;;
17832;SDS011;9041;49.718;21.798;2023-03-13T12:32:47;10.20;;;5.55;;
17832;SDS011;9041;49.718;21.798;2023-03-13T12:35:20;12.55;;;6.38;;
17832;SDS011;9041;49.718;21.798;2023-03-13T12:37:53;11.20;;;6.28;;
17832;SDS011;9041;49.718;21.798;2023-03-13T12:40:26;11.93;;;6.10;;
17832;SDS011;9041;49.718;21.798;2023-03-13T12:42:56;10.82;;;5.53;;
17832;SDS011;9041;49.718;21.798;2023-03-13T12:45:26;10.77;;;5.72;;
17832;SDS011;9041;49.718;21.798;2023-03-13T12:48:07;11.18;;;6.05;;
17832;SDS011;9041;49.718;21.798;2023-03-13T12:50:47;13.82;;;6.65;;
17832;SDS011;9041;49.718;21.798;2023-03-13T12:56:46;9.93;;;5.97;;
17832;SDS011;9041;49.718;21.798;2023-03-13T12:59:22;13.00;;;6.30;;
17832;SDS011;9041;49.718;21.798;2023-03-13T13:01:52;13.98;;;6.55;;
17832;SDS011;9041;49.718;21.798;2023-03-13T13:04:20;12.00;;;5.88;;
17832;SDS011;9041;49.718;21.798;2023-03-13T13:06:49;11.30;;;6.43;;
17832;SDS011;9041;49.718;21.798;2023-03-13T13:09:18;9.32;;;5.93;;
17832;SDS011;9041;49.718;21.798;2023-03-13T13:11:49;12.73;;;6.40;;
17832;SDS011;9041;49.718;21.798;2023-03-13T13:17:24;11.98;;;6.00;;
17832;SDS011;9041;49.718;21.798;2023-03-13T13:19:55;13.85;;;6.32;;
17832;SDS011;9041;49.718;21.798;2023-03-13T13:25:28;12.65;;;6.70;;
17832;SDS011;9041;49.718;21.798;2023-03-13T13:28:11;18.08;;;6.80;;
17832;SDS011;9041;49.718;21.798;2023-03-13T13:30:59;13.70;;;6.10;;
17832;SDS011;9041;49.718;21.798;2023-03-13T13:33:34;14.98;;;6.30;;
17832;SDS011;9041;49.718;21.798;2023-03-13T13:38:55;13.93;;;6.75;;
17832;SDS011;9041;49.718;21.798;2023-03-13T13:41:35;13.07;;;7.22;;
17832;SDS011;9041;49.718;21.798;2023-03-13T13:46:59;19.88;;;9.20;;
17832;SDS011;9041;49.718;21.798;2023-03-13T13:49:50;14.90;;;7.63;;
17832;SDS011;9041;49.718;21.798;2023-03-13T13:57:58;12.35;;;6.97;;
17832;SDS011;9041;49.718;21.798;2023-03-13T14:00:28;13.00;;;6.43;;
17832;SDS011;9041;49.718;21.798;2023-03-13T14:03:10;13.25;;;7.05;;
17832;SDS011;9041;49.718;21.798;2023-03-13T14:05:42;15.90;;;7.25;;
17832;SDS011;9041;49.718;21.798;2023-03-13T14:08:13;16.65;;;7.00;;
17832;SDS011;9041;49.718;21.798;2023-03-13T14:10:44;13.80;;;7.13;;
17832;SDS011;9041;49.718;21.798;2023-03-13T14:13:14;18.25;;;6.53;;
17832;SDS011;9041;49.718;21.798;2023-03-13T14:15:44;18.70;;;8.65;;
17832;SDS011;9041;49.718;21.798;2023-03-13T14:18:13;13.68;;;6.25;;
17832;SDS011;9041;49.718;21.798;2023-03-13T14:20:50;15.20;;;7.53;;
17832;SDS011;9041;49.718;21.798;2023-03-13T14:23:33;13.87;;;7.73;;
17832;SDS011;9041;49.718;21.798;2023-03-13T14:26:11;13.90;;;7.13;;
17832;SDS011;9041;49.718;21.798;2023-03-13T14:28:42;15.00;;;6.80;;
17832;SDS011;9041;49.718;21.798;2023-03-13T14:31:11;12.82;;;7.10;;
17832;SDS011;9041;49.718;21.798;2023-03-13T14:33:47;14.18;;;7.35;;
17832;SDS011;9041;49.718;21.798;2023-03-13T14:36:14;10.97;;;6.00;;
17832;SDS011;9041;49.718;21.798;2023-03-13T14:38:46;14.43;;;8.13;;
17832;SDS011;9041;49.718;21.798;2023-03-13T14:41:25;16.00;;;7.33;;
17832;SDS011;9041;49.718;21.798;2023-03-13T14:43:54;14.83;;;7.80;;
17832;SDS011;9041;49.718;21.798;2023-03-13T14:46:30;11.90;;;6.70;;
17832;SDS011;9041;49.718;21.798;2023-03-13T14:49:04;16.10;;;7.20;;
17832;SDS011;9041;49.718;21.798;2023-03-13T14:51:32;18.10;;;7.87;;
17832;SDS011;9041;49.718;21.798;2023-03-13T14:54:04;15.10;;;7.73;;
17832;SDS011;9041;49.718;21.798;2023-03-13T14:56:31;16.77;;;8.73;;
17832;SDS011;9041;49.718;21.798;2023-03-13T14:59:05;16.53;;;7.50;;
17832;SDS011;9041;49.718;21.798;2023-03-13T15:01:35;15.40;;;7.73;;
17832;SDS011;9041;49.718;21.798;2023-03-13T15:04:02;18.53;;;8.90;;
17832;SDS011;9041;49.718;21.798;2023-03-13T15:06:29;18.63;;;9.10;;
17832;SDS011;9041;49.718;21.798;2023-03-13T15:11:51;19.67;;;9.30;;
17832;SDS011;9041;49.718;21.798;2023-03-13T15:17:11;18.17;;;9.50;;
17832;SDS011;9041;49.718;21.798;2023-03-13T15:19:39;15.03;;;7.40;;
17832;SDS011;9041;49.718;21.798;2023-03-13T15:22:09;16.70;;;9.17;;